Time;durP1;ratioP1;P1;durP2;ratioP2;P2;SDS_P1;SDS_P2;PMS_P1;PMS_P2;Temp;Humidity;BMP_temperature;BMP_pressure;BME280_temperature;BME280_humidity;BME280_pressure;Samples;Min_cycle;Max_cycle;Signal;HPM_P1;HPM_P2
2022/06/20 00:00:48;;;;;;;3.40;1.67;;;;;;;;;;5052380;28;20049;-39
2022/06/20 00:03:31;;;;;;;3.58;2.00;;;;;;;;;;5052057;28;20384;-40
2022/06/20 00:05:57;;;;;;;1.90;1.50;;;;;;;;;;5052135;28;20025;-39
2022/06/20 00:08:22;;;;;;;2.67;2.13;;;;;;;;;;5052357;28;20090;-39
2022/06/20 00:10:49;;;;;;;1.92;1.55;;;;;;;;;;5052346;28;20083;-40
2022/06/20 00:13:17;;;;;;;1.75;1.65;;;;;;;;;;5051978;28;20020;-39
2022/06/20 00:15:43;;;;;;;3.28;1.45;;;;;;;;;;5051876;28;20060;-39
2022/06/20 00:18:09;;;;;;;1.98;1.75;;;;;;;;;;5052116;28;20029;-40
2022/06/20 00:20:35;;;;;;;1.58;1.25;;;;;;;;;;5052093;28;20098;-40
2022/06/20 00:23:01;;;;;;;2.20;1.55;;;;;;;;;;5051943;28;20462;-40
2022/06/20 00:25:26;;;;;;;1.55;1.45;;;;;;;;;;5051846;28;20035;-40
2022/06/20 00:27:53;;;;;;;2.13;1.60;;;;;;;;;;5052039;28;20017;-43
2022/06/20 00:30:19;;;;;;;1.95;1.70;;;;;;;;;;5052082;28;20032;-40
2022/06/20 00:32:44;;;;;;;2.88;1.70;;;;;;;;;;5051959;28;20408;-39
2022/06/20 00:35:10;;;;;;;3.15;2.05;;;;;;;;;;5051719;28;20040;-40
2022/06/20 00:37:36;;;;;;;2.80;1.70;;;;;;;;;;5051952;28;20024;-39
2022/06/20 00:40:01;;;;;;;1.55;1.40;;;;;;;;;;5051381;28;20037;-40
2022/06/20 00:42:26;;;;;;;1.60;1.50;;;;;;;;;;5050476;28;20561;-40
2022/06/20 00:45:01;;;;;;;2.50;1.83;;;;;;;;;;5051479;28;20402;-40
2022/06/20 00:47:29;;;;;;;2.78;1.55;;;;;;;;;;5051521;28;20029;-40
2022/06/20 00:50:06;;;;;;;2.28;1.63;;;;;;;;;;5051541;28;20055;-39
2022/06/20 00:52:34;;;;;;;2.33;1.63;;;;;;;;;;5051821;28;20052;-40
2022/06/20 00:55:00;;;;;;;3.35;2.17;;;;;;;;;;5051254;28;20067;-42
2022/06/20 00:57:29;;;;;;;3.13;1.73;;;;;;;;;;5051458;28;20426;-40
2022/06/20 01:00:03;;;;;;;2.38;1.85;;;;;;;;;;5051080;28;20195;-40
2022/06/20 01:02:32;;;;;;;2.05;1.55;;;;;;;;;;5051621;28;20036;-39
2022/06/20 01:04:59;;;;;;;2.00;1.80;;;;;;;;;;5051485;28;20059;-41
2022/06/20 01:07:27;;;;;;;4.28;2.00;;;;;;;;;;5051269;28;20028;-40
2022/06/20 01:09:55;;;;;;;1.83;1.73;;;;;;;;;;5051678;28;20040;-40
2022/06/20 01:12:21;;;;;;;5.40;2.35;;;;;;;;;;5051218;28;20096;-39
2022/06/20 01:14:47;;;;;;;2.53;1.80;;;;;;;;;;5050992;28;20136;-40
2022/06/20 01:17:18;;;;;;;2.95;2.47;;;;;;;;;;5050988;28;20040;-40
2022/06/20 01:19:59;;;;;;;2.83;1.92;;;;;;;;;;5051326;28;20391;-40
2022/06/20 01:22:27;;;;;;;2.25;2.00;;;;;;;;;;5051314;28;20064;-39
2022/06/20 01:25:03;;;;;;;7.07;2.30;;;;;;;;;;5051046;28;20558;-40
2022/06/20 01:27:37;;;;;;;2.20;2.00;;;;;;;;;;5051121;28;20037;-40
2022/06/20 01:30:03;;;;;;;2.83;2.30;;;;;;;;;;5049638;28;20342;-40
2022/06/20 01:32:29;;;;;;;2.10;1.88;;;;;;;;;;5051046;28;20083;-40
2022/06/20 01:34:56;;;;;;;2.28;2.08;;;;;;;;;;5050977;28;20368;-39
2022/06/20 01:37:25;;;;;;;2.03;1.55;;;;;;;;;;5050905;28;20044;-40
2022/06/20 01:39:53;;;;;;;2.30;2.00;;;;;;;;;;5051088;28;20102;-40
2022/06/20 01:42:19;;;;;;;2.42;2.00;;;;;;;;;;5051078;28;20463;-39
2022/06/20 01:44:47;;;;;;;2.40;2.08;;;;;;;;;;5051079;28;20056;-39
2022/06/20 01:47:13;;;;;;;4.50;1.60;;;;;;;;;;5050836;28;20021;-39
2022/06/20 01:49:39;;;;;;;5.80;2.30;;;;;;;;;;5050787;28;20037;-39
2022/06/20 01:52:12;;;;;;;2.50;2.30;;;;;;;;;;5052478;28;20048;-39
2022/06/20 01:54:40;;;;;;;3.72;2.22;;;;;;;;;;5054792;28;20037;-39
2022/06/20 01:57:08;;;;;;;2.38;1.83;;;;;;;;;;5054527;28;20029;-40
2022/06/20 02:00:03;;;;;;;1.98;1.80;;;;;;;;;;5054831;28;20076;-40
2022/06/20 02:02:31;;;;;;;2.10;1.90;;;;;;;;;;5054232;28;20033;-40
2022/06/20 02:04:56;;;;;;;3.30;2.13;;;;;;;;;;5054376;28;20017;-40
2022/06/20 02:07:22;;;;;;;2.88;1.75;;;;;;;;;;5054746;28;20387;-40
2022/06/20 02:09:47;;;;;;;4.13;1.88;;;;;;;;;;5053250;28;20024;-40
2022/06/20 02:12:15;;;;;;;3.95;2.55;;;;;;;;;;5054432;28;20036;-40
2022/06/20 02:14:43;;;;;;;2.60;1.90;;;;;;;;;;5054212;28;20499;-39
2022/06/20 02:17:14;;;;;;;4.50;2.13;;;;;;;;;;5054515;28;20040;-39
2022/06/20 02:19:43;;;;;;;2.13;1.83;;;;;;;;;;5054081;28;20508;-40
2022/06/20 02:22:09;;;;;;;2.22;2.03;;;;;;;;;;5054452;28;20063;-39
2022/06/20 02:24:36;;;;;;;2.60;1.90;;;;;;;;;;5054119;28;20075;-39
2022/06/20 02:27:03;;;;;;;2.58;1.63;;;;;;;;;;5053977;28;20152;-39
2022/06/20 02:29:30;;;;;;;2.25;2.05;;;;;;;;;;5054272;28;20370;-41
2022/06/20 02:32:14;;;;;;;2.47;1.85;;;;;;;;;;5054253;28;20480;-40
2022/06/20 02:34:40;;;;;;;1.70;1.48;;;;;;;;;;5054221;28;20413;-39
2022/06/20 02:37:09;;;;;;;4.82;2.13;;;;;;;;;;5054149;28;20025;-40
2022/06/20 02:39:38;;;;;;;2.08;1.88;;;;;;;;;;5054051;28;20399;-39
2022/06/20 02:42:04;;;;;;;3.80;1.92;;;;;;;;;;5053680;28;20486;-40
2022/06/20 02:44:30;;;;;;;1.85;1.75;;;;;;;;;;5053908;28;20029;-39
2022/06/20 02:46:56;;;;;;;3.28;2.03;;;;;;;;;;5052353;28;20017;-39
2022/06/20 02:49:23;;;;;;;2.53;2.33;;;;;;;;;;5053677;28;20510;-39
2022/06/20 02:51:51;;;;;;;2.00;1.85;;;;;;;;;;5053944;28;20029;-40
2022/06/20 02:54:17;;;;;;;7.60;2.03;;;;;;;;;;5053780;28;20059;-39
2022/06/20 02:56:49;;;;;;;2.15;1.95;;;;;;;;;;5053868;28;20046;-40
2022/06/20 02:59:17;;;;;;;3.60;2.20;;;;;;;;;;5053288;28;20044;-40
2022/06/20 03:01:46;;;;;;;2.13;1.48;;;;;;;;;;5053757;28;20025;-39
2022/06/20 03:04:12;;;;;;;3.75;1.90;;;;;;;;;;5053091;28;20064;-40
2022/06/20 03:06:39;;;;;;;2.20;1.98;;;;;;;;;;5053733;28;20025;-39
2022/06/20 03:09:04;;;;;;;2.30;2.05;;;;;;;;;;5053020;28;20056;-40
2022/06/20 03:11:32;;;;;;;2.22;1.90;;;;;;;;;;5053311;28;20056;-40
2022/06/20 03:13:59;;;;;;;2.88;2.13;;;;;;;;;;5053274;28;20072;-40
2022/06/20 03:16:25;;;;;;;2.90;2.22;;;;;;;;;;5053207;28;20072;-39
2022/06/20 03:18:51;;;;;;;2.60;2.13;;;;;;;;;;5053329;28;20128;-39
2022/06/20 03:21:21;;;;;;;3.85;2.63;;;;;;;;;;5052997;28;20412;-39
2022/06/20 03:23:47;;;;;;;2.65;1.85;;;;;;;;;;5053185;28;20075;-39
2022/06/20 03:26:15;;;;;;;5.45;1.95;;;;;;;;;;5053210;28;20025;-39
2022/06/20 03:28:41;;;;;;;3.08;2.22;;;;;;;;;;5053205;28;20056;-40
2022/06/20 03:31:06;;;;;;;2.20;2.00;;;;;;;;;;5052816;28;20530;-41
2022/06/20 03:33:32;;;;;;;5.57;2.13;;;;;;;;;;5052836;28;20117;-39
2022/06/20 03:35:59;;;;;;;2.67;2.30;;;;;;;;;;5052963;28;20045;-40
2022/06/20 03:38:25;;;;;;;2.97;2.65;;;;;;;;;;5052699;28;20100;-40
2022/06/20 03:40:50;;;;;;;4.28;2.47;;;;;;;;;;5052674;28;20567;-40
2022/06/20 03:43:18;;;;;;;1.85;1.52;;;;;;;;;;5052679;28;20083;-39
2022/06/20 03:45:46;;;;;;;2.35;2.08;;;;;;;;;;5052858;28;20029;-39
2022/06/20 03:48:20;;;;;;;3.38;1.95;;;;;;;;;;5052486;28;20533;-39
2022/06/20 03:50:51;;;;;;;4.13;2.55;;;;;;;;;;5052540;28;20433;-39
2022/06/20 03:53:19;;;;;;;3.60;2.38;;;;;;;;;;5052634;28;20028;-39
2022/06/20 03:55:58;;;;;;;1.60;1.50;;;;;;;;;;5052471;28;20017;-38
2022/06/20 03:58:27;;;;;;;2.72;2.20;;;;;;;;;;5052388;28;20461;-40
2022/06/20 04:00:56;;;;;;;2.20;2.00;;;;;;;;;;5052272;28;20530;-39
2022/06/20 04:03:25;;;;;;;6.25;2.25;;;;;;;;;;5052638;28;20025;-39
2022/06/20 04:05:55;;;;;;;2.42;1.95;;;;;;;;;;5051072;28;20024;-40
2022/06/20 04:08:23;;;;;;;2.92;2.15;;;;;;;;;;5052145;28;20530;-39
2022/06/20 04:11:03;;;;;;;3.05;2.10;;;;;;;;;;5052464;28;20103;-39
2022/06/20 04:13:52;;;;;;;2.30;1.83;;;;;;;;;;5052323;28;20390;-39
2022/06/20 04:16:31;;;;;;;6.40;2.33;;;;;;;;;;5051385;28;20085;-39
2022/06/20 04:19:15;;;;;;;2.33;2.05;;;;;;;;;;5052119;28;20082;-39
2022/06/20 04:21:47;;;;;;;5.15;2.10;;;;;;;;;;5050616;28;20052;-39
2022/06/20 04:24:31;;;;;;;2.73;1.93;;;;;;;;;;5052171;28;20071;-40
2022/06/20 04:27:18;;;;;;;3.58;2.83;;;;;;;;;;5052079;28;20269;-39
2022/06/20 04:29:43;;;;;;;2.50;2.30;;;;;;;;;;5051789;28;20029;-40
2022/06/20 04:32:17;;;;;;;2.90;2.17;;;;;;;;;;5051730;28;20075;-39
2022/06/20 04:34:46;;;;;;;2.40;2.17;;;;;;;;;;5051866;28;20032;-39
2022/06/20 04:37:14;;;;;;;2.28;2.05;;;;;;;;;;5051691;28;20019;-39
2022/06/20 04:39:39;;;;;;;2.83;2.20;;;;;;;;;;5051535;28;20070;-39
2022/06/20 04:42:11;;;;;;;2.40;2.20;;;;;;;;;;5051485;28;20020;-39
2022/06/20 04:44:39;;;;;;;8.40;2.13;;;;;;;;;;5051604;28;20048;-39
2022/06/20 04:47:04;;;;;;;3.20;2.40;;;;;;;;;;5051521;28;20043;-39
2022/06/20 04:49:30;;;;;;;2.30;2.10;;;;;;;;;;5051434;28;20479;-39
2022/06/20 04:51:56;;;;;;;1.83;1.60;;;;;;;;;;5051440;28;20044;-40
2022/06/20 04:54:22;;;;;;;2.83;1.98;;;;;;;;;;5051441;28;20113;-39
2022/06/20 04:56:52;;;;;;;2.17;1.77;;;;;;;;;;5051641;28;20013;-39
2022/06/20 04:59:19;;;;;;;2.03;1.83;;;;;;;;;;5051207;28;20045;-39
2022/06/20 05:01:45;;;;;;;4.93;2.05;;;;;;;;;;5051448;28;20048;-40
2022/06/20 05:04:22;;;;;;;2.88;2.08;;;;;;;;;;5051379;28;20060;-39
2022/06/20 05:06:48;;;;;;;5.05;2.10;;;;;;;;;;5051379;28;20055;-39
2022/06/20 05:09:22;;;;;;;4.00;2.38;;;;;;;;;;5051333;28;20017;-40
2022/06/20 05:11:51;;;;;;;2.40;2.08;;;;;;;;;;5049915;28;20458;-39
2022/06/20 05:14:22;;;;;;;2.67;2.08;;;;;;;;;;5051188;28;20126;-39
2022/06/20 05:16:49;;;;;;;3.60;2.60;;;;;;;;;;5051182;28;20033;-39
2022/06/20 05:19:19;;;;;;;3.30;2.45;;;;;;;;;;5050946;28;20082;-39
2022/06/20 05:21:47;;;;;;;4.47;2.25;;;;;;;;;;5051429;28;20037;-39
2022/06/20 05:24:15;;;;;;;2.25;2.05;;;;;;;;;;5050937;28;20024;-40
2022/06/20 05:26:42;;;;;;;3.03;2.28;;;;;;;;;;5052335;28;20060;-40
2022/06/20 05:29:13;;;;;;;2.15;1.95;;;;;;;;;;5055107;28;20021;-39
2022/06/20 05:31:46;;;;;;;2.53;2.20;;;;;;;;;;5055256;28;20498;-40
2022/06/20 05:34:14;;;;;;;2.45;2.25;;;;;;;;;;5055100;28;20029;-40
2022/06/20 05:36:52;;;;;;;2.45;2.20;;;;;;;;;;5055062;28;20463;-40
2022/06/20 05:39:24;;;;;;;3.45;2.17;;;;;;;;;;5054843;28;20091;-40
2022/06/20 05:41:50;;;;;;;2.85;2.45;;;;;;;;;;5054894;28;20078;-40
2022/06/20 05:44:16;;;;;;;2.42;2.20;;;;;;;;;;5054902;28;20024;-40
2022/06/20 05:46:42;;;;;;;2.72;2.15;;;;;;;;;;5055032;28;20105;-39
2022/06/20 05:49:13;;;;;;;5.95;2.53;;;;;;;;;;5054966;28;20032;-39
2022/06/20 05:51:39;;;;;;;2.95;2.33;;;;;;;;;;5054891;28;20037;-39
2022/06/20 05:54:17;;;;;;;7.78;2.75;;;;;;;;;;5054523;28;20020;-39
2022/06/20 05:56:56;;;;;;;2.22;1.77;;;;;;;;;;5054676;28;20117;-40
2022/06/20 05:59:28;;;;;;;5.50;2.20;;;;;;;;;;5054577;28;20048;-39
2022/06/20 06:01:58;;;;;;;2.10;1.90;;;;;;;;;;5054613;28;20029;-39
2022/06/20 06:04:26;;;;;;;2.78;2.50;;;;;;;;;;5054623;28;20017;-40
2022/06/20 06:07:01;;;;;;;2.88;2.28;;;;;;;;;;5054819;28;20036;-40
2022/06/20 06:09:47;;;;;;;3.17;2.30;;;;;;;;;;5054422;28;20033;-39
2022/06/20 06:12:15;;;;;;;2.63;1.90;;;;;;;;;;5052351;28;20094;-39
2022/06/20 06:14:43;;;;;;;3.22;2.60;;;;;;;;;;5054133;28;20049;-39
2022/06/20 06:17:22;;;;;;;3.17;2.83;;;;;;;;;;5054300;28;20076;-39
2022/06/20 06:19:48;;;;;;;2.92;2.35;;;;;;;;;;5054181;28;20033;-39
2022/06/20 06:22:19;;;;;;;4.07;1.92;;;;;;;;;;5054330;28;20017;-40
2022/06/20 06:24:46;;;;;;;2.30;1.85;;;;;;;;;;5054555;28;20054;-40
2022/06/20 06:27:27;;;;;;;2.38;2.15;;;;;;;;;;5054057;28;20397;-39
2022/06/20 06:29:57;;;;;;;2.55;2.08;;;;;;;;;;5053981;28;20032;-39
2022/06/20 06:32:26;;;;;;;1.73;1.63;;;;;;;;;;5054055;28;20025;-42
2022/06/20 06:34:56;;;;;;;3.40;1.88;;;;;;;;;;5054233;28;20045;-44
2022/06/20 06:37:26;;;;;;;2.17;2.03;;;;;;;;;;5053709;28;20028;-40
2022/06/20 06:39:54;;;;;;;5.18;2.10;;;;;;;;;;5054050;28;20387;-40
2022/06/20 06:42:20;;;;;;;2.17;1.95;;;;;;;;;;5052606;28;20032;-39
2022/06/20 06:44:48;;;;;;;4.93;1.77;;;;;;;;;;5052506;28;20070;-39
2022/06/20 06:47:32;;;;;;;1.70;1.60;;;;;;;;;;5054031;28;20090;-40
2022/06/20 06:50:01;;;;;;;2.50;1.75;;;;;;;;;;5052244;28;20323;-40
2022/06/20 06:52:30;;;;;;;1.80;1.70;;;;;;;;;;5053688;28;20459;-39
2022/06/20 06:55:01;;;;;;;1.50;1.40;;;;;;;;;;5053692;28;20025;-40
2022/06/20 06:57:36;;;;;;;2.85;1.92;;;;;;;;;;5053857;28;20025;-39
2022/06/20 07:00:05;;;;;;;1.83;1.73;;;;;;;;;;5053640;28;20033;-40
2022/06/20 07:02:36;;;;;;;2.20;1.95;;;;;;;;;;5053468;28;20021;-39
2022/06/20 07:05:05;;;;;;;2.38;1.50;;;;;;;;;;5053514;28;20090;-39
2022/06/20 07:07:42;;;;;;;4.50;2.00;;;;;;;;;;5053378;28;20097;-39
2022/06/20 07:10:16;;;;;;;1.88;1.70;;;;;;;;;;5053467;28;20056;-39
2022/06/20 07:12:45;;;;;;;2.80;2.15;;;;;;;;;;5053380;28;20040;-39
2022/06/20 07:15:12;;;;;;;4.10;2.00;;;;;;;;;;5052935;28;20076;-40
2022/06/20 07:17:56;;;;;;;1.70;1.42;;;;;;;;;;5053180;28;20065;-39
2022/06/20 07:20:24;;;;;;;3.92;1.52;;;;;;;;;;5053188;28;20041;-40
2022/06/20 07:22:50;;;;;;;2.03;1.85;;;;;;;;;;5053148;28;20487;-40
2022/06/20 07:25:19;;;;;;;3.67;1.95;;;;;;;;;;5052919;28;20036;-40
2022/06/20 07:27:51;;;;;;;4.47;2.50;;;;;;;;;;5052969;28;20210;-39
2022/06/20 07:30:22;;;;;;;2.55;2.25;;;;;;;;;;5053211;28;20383;-41
2022/06/20 07:32:50;;;;;;;1.77;1.65;;;;;;;;;;5051610;28;20433;-39
2022/06/20 07:35:21;;;;;;;2.17;1.98;;;;;;;;;;5052864;28;20055;-40
2022/06/20 07:37:49;;;;;;;3.78;2.50;;;;;;;;;;5052747;28;20028;-39
2022/06/20 07:40:24;;;;;;;2.50;2.22;;;;;;;;;;5052646;28;20091;-42
2022/06/20 07:43:05;;;;;;;2.42;2.17;;;;;;;;;;5052536;28;20098;-40
2022/06/20 07:45:51;;;;;;;3.45;2.28;;;;;;;;;;5052986;28;20064;-41
2022/06/20 07:48:17;;;;;;;5.90;2.72;;;;;;;;;;5052245;28;20514;-40
2022/06/20 07:50:44;;;;;;;2.95;2.65;;;;;;;;;;5052086;28;20029;-41
2022/06/20 07:53:10;;;;;;;3.22;2.65;;;;;;;;;;5052492;28;20071;-41
2022/06/20 07:55:39;;;;;;;7.38;3.22;;;;;;;;;;5052570;28;20029;-41
2022/06/20 07:58:12;;;;;;;2.30;2.10;;;;;;;;;;5052465;28;20021;-41
2022/06/20 08:00:41;;;;;;;1.98;1.88;;;;;;;;;;5052290;28;20041;-41
2022/06/20 08:03:07;;;;;;;3.95;2.03;;;;;;;;;;5052240;28;20053;-40
2022/06/20 08:05:35;;;;;;;3.63;2.05;;;;;;;;;;5052368;28;20072;-40
2022/06/20 08:08:20;;;;;;;2.25;2.05;;;;;;;;;;5052380;28;20021;-41
2022/06/20 08:10:50;;;;;;;4.43;2.25;;;;;;;;;;5051492;28;20061;-41
2022/06/20 08:13:15;;;;;;;2.70;1.92;;;;;;;;;;5052326;28;20032;-41
2022/06/20 08:15:50;;;;;;;3.30;2.30;;;;;;;;;;5051984;28;20049;-41
2022/06/20 08:18:16;;;;;;;7.28;2.55;;;;;;;;;;5052199;28;20395;-41
2022/06/20 08:20:42;;;;;;;2.40;2.17;;;;;;;;;;5051881;28;20028;-41
2022/06/20 08:23:12;;;;;;;3.35;2.08;;;;;;;;;;5050590;28;20436;-41
2022/06/20 08:25:45;;;;;;;2.17;1.80;;;;;;;;;;5052222;28;20021;-41
2022/06/20 08:28:16;;;;;;;2.05;1.85;;;;;;;;;;5051782;28;20032;-41
2022/06/20 08:30:43;;;;;;;2.13;1.95;;;;;;;;;;5051999;28;20044;-41
2022/06/20 08:33:23;;;;;;;2.47;2.28;;;;;;;;;;5051784;28;20032;-41
2022/06/20 08:35:52;;;;;;;2.25;2.05;;;;;;;;;;5051707;28;20518;-41
2022/06/20 08:38:18;;;;;;;1.98;1.88;;;;;;;;;;5050342;28;20395;-42
2022/06/20 08:40:55;;;;;;;1.80;1.67;;;;;;;;;;5051530;28;20040;-42
2022/06/20 08:43:20;;;;;;;2.30;1.65;;;;;;;;;;5051553;28;20035;-41
2022/06/20 08:46:04;;;;;;;1.95;1.50;;;;;;;;;;5051638;28;20640;-41
2022/06/20 08:48:36;;;;;;;2.97;1.90;;;;;;;;;;5051635;28;20040;-40
2022/06/20 08:51:21;;;;;;;2.38;1.63;;;;;;;;;;5051303;28;20079;-41
2022/06/20 08:53:49;;;;;;;2.53;1.88;;;;;;;;;;5050184;28;20037;-41
2022/06/20 08:56:18;;;;;;;2.20;1.63;;;;;;;;;;5051373;28;20020;-41
2022/06/20 08:59:05;;;;;;;4.20;1.55;;;;;;;;;;5051508;28;20033;-41
2022/06/20 09:01:30;;;;;;;2.38;1.60;;;;;;;;;;5051163;28;20491;-41
2022/06/20 09:04:05;;;;;;;2.00;1.55;;;;;;;;;;5051354;28;20029;-40
2022/06/20 09:06:39;;;;;;;1.95;1.65;;;;;;;;;;5051323;28;20040;-41
2022/06/20 09:09:20;;;;;;;2.67;1.90;;;;;;;;;;5051115;28;20028;-41
2022/06/20 09:11:58;;;;;;;6.68;1.80;;;;;;;;;;5051274;28;20036;-41
2022/06/20 09:14:44;;;;;;;1.90;1.02;;;;;;;;;;5050940;28;20076;-41
2022/06/20 09:17:25;;;;;;;3.65;1.95;;;;;;;;;;5050955;28;20043;-40
2022/06/20 09:19:53;;;;;;;6.43;1.98;;;;;;;;;;5049816;28;20160;-41
2022/06/20 09:22:27;;;;;;;1.77;1.63;;;;;;;;;;5051388;28;20021;-41
2022/06/20 09:24:59;;;;;;;2.70;1.55;;;;;;;;;;5049947;28;20391;-41
2022/06/20 09:27:42;;;;;;;1.65;1.55;;;;;;;;;;5050893;28;20464;-41
2022/06/20 09:30:15;;;;;;;4.20;1.70;;;;;;;;;;5051326;28;20383;-41
2022/06/20 09:32:40;;;;;;;;;;;;;;;;;;5051674;28;20025;-41
2022/06/20 09:35:18;;;;;;;3.33;1.88;;;;;;;;;;5050976;28;20382;-41
2022/06/20 09:38:02;;;;;;;3.10;2.83;;;;;;;;;;5050962;28;20087;-41
2022/06/20 09:40:31;;;;;;;1.73;1.63;;;;;;;;;;5051178;28;20391;-41
2022/06/20 09:43:02;;;;;;;3.38;2.00;;;;;;;;;;5051030;28;20098;-41
2022/06/20 09:45:57;;;;;;;3.10;1.60;;;;;;;;;;5051074;28;20032;-41
2022/06/20 09:48:31;;;;;;;2.10;1.80;;;;;;;;;;5048473;28;20048;-41
2022/06/20 09:51:00;;;;;;;2.05;1.85;;;;;;;;;;5051163;28;20033;-41
2022/06/20 09:53:44;;;;;;;3.38;1.95;;;;;;;;;;5050986;28;20059;-41
2022/06/20 09:56:12;;;;;;;2.58;1.98;;;;;;;;;;5050682;28;20499;-41
2022/06/20 09:58:38;;;;;;;1.73;1.63;;;;;;;;;;5049601;28;20033;-41
2022/06/20 10:01:12;;;;;;;1.83;1.73;;;;;;;;;;5050646;28;20089;-41
2022/06/20 10:03:37;;;;;;;3.40;1.98;;;;;;;;;;5051124;28;20375;-40
2022/06/20 10:06:29;;;;;;;1.75;1.63;;;;;;;;;;5050694;28;20017;-41
2022/06/20 10:09:04;;;;;;;2.92;1.92;;;;;;;;;;5050412;28;20041;-41
2022/06/20 10:11:40;;;;;;;2.08;1.75;;;;;;;;;;5051019;28;20044;-41
2022/06/20 10:14:08;;;;;;;3.30;1.95;;;;;;;;;;5053833;28;20094;-42
2022/06/20 10:16:38;;;;;;;8.00;2.22;;;;;;;;;;5053051;28;20534;-41
2022/06/20 10:19:04;;;;;;;3.33;2.65;;;;;;;;;;5054086;28;20072;-41
2022/06/20 10:21:39;;;;;;;2.70;2.08;;;;;;;;;;5054249;28;20060;-41
2022/06/20 10:24:07;;;;;;;2.45;2.05;;;;;;;;;;5054109;28;20021;-40
2022/06/20 10:26:33;;;;;;;2.95;2.40;;;;;;;;;;5054203;28;20025;-41
2022/06/20 10:29:22;;;;;;;3.58;1.70;;;;;;;;;;5053978;28;20479;-41
2022/06/20 10:31:51;;;;;;;1.92;1.77;;;;;;;;;;5053441;28;20041;-41
2022/06/20 10:34:16;;;;;;;2.35;2.13;;;;;;;;;;5054329;28;20025;-41
2022/06/20 10:37:00;;;;;;;2.08;1.70;;;;;;;;;;5054170;28;20383;-41
2022/06/20 10:39:44;;;;;;;1.60;1.50;;;;;;;;;;5054132;28;20068;-41
2022/06/20 10:42:22;;;;;;;5.30;2.38;;;;;;;;;;5054141;28;20040;-42
2022/06/20 10:44:47;;;;;;;3.05;1.80;;;;;;;;;;5053834;28;20036;-41
2022/06/20 10:47:19;;;;;;;2.13;1.92;;;;;;;;;;5053814;28;20017;-41
2022/06/20 10:49:50;;;;;;;2.47;1.92;;;;;;;;;;5054009;28;20439;-41
2022/06/20 10:52:36;;;;;;;3.42;2.15;;;;;;;;;;5053675;28;20040;-42
2022/06/20 10:55:04;;;;;;;2.08;1.75;;;;;;;;;;5053766;28;20111;-41
2022/06/20 10:57:36;;;;;;;1.77;1.67;;;;;;;;;;5053846;28;20278;-41
2022/06/20 11:00:04;;;;;;;4.55;1.73;;;;;;;;;;5053330;28;20033;-41
2022/06/20 11:02:30;;;;;;;1.58;1.48;;;;;;;;;;5053502;28;20051;-41
2022/06/20 11:04:58;;;;;;;2.38;1.55;;;;;;;;;;5053475;28;20060;-41
2022/06/20 11:07:44;;;;;;;1.50;1.40;;;;;;;;;;5053272;28;20628;-41
2022/06/20 11:10:28;;;;;;;1.00;1.00;;;;;;;;;;5053077;28;20102;-41
2022/06/20 11:13:00;;;;;;;5.82;1.30;;;;;;;;;;5053511;28;20029;-41
2022/06/20 11:15:25;;;;;;;1.20;1.10;;;;;;;;;;5052970;28;20041;-41
2022/06/20 11:18:02;;;;;;;1.40;1.20;;;;;;;;;;5051969;28;20029;-41
2022/06/20 11:20:38;;;;;;;1.27;1.00;;;;;;;;;;5053073;28;20033;-41
2022/06/20 11:23:04;;;;;;;3.13;1.23;;;;;;;;;;5053045;28;20104;-41
2022/06/20 11:25:29;;;;;;;2.92;1.50;;;;;;;;;;5053075;28;20112;-42
2022/06/20 11:28:07;;;;;;;1.42;1.33;;;;;;;;;;5052901;28;20100;-41
2022/06/20 11:30:32;;;;;;;1.65;1.50;;;;;;;;;;5052990;28;20052;-41
2022/06/20 11:32:58;;;;;;;2.35;1.60;;;;;;;;;;5053285;28;20120;-42
2022/06/20 11:35:30;;;;;;;1.80;1.13;;;;;;;;;;5052767;28;20115;-41
2022/06/20 11:38:27;;;;;;;1.90;1.42;;;;;;;;;;5052862;28;20027;-41
2022/06/20 11:41:16;;;;;;;1.42;1.33;;;;;;;;;;5051231;28;20110;-41
2022/06/20 11:43:47;;;;;;;1.63;1.38;;;;;;;;;;5052781;28;20017;-41
2022/06/20 11:46:13;;;;;;;1.77;1.45;;;;;;;;;;5052626;28;20029;-42
2022/06/20 11:49:01;;;;;;;6.40;1.33;;;;;;;;;;5051355;28;20024;-42
2022/06/20 11:51:30;;;;;;;3.30;1.42;;;;;;;;;;5052613;28;20441;-41
2022/06/20 11:53:59;;;;;;;1.83;1.45;;;;;;;;;;5052540;28;20044;-41
2022/06/20 11:56:29;;;;;;;5.03;2.53;;;;;;;;;;5052460;28;20033;-42
2022/06/20 11:59:13;;;;;;;1.75;1.65;;;;;;;;;;5052350;28;20032;-41
2022/06/20 12:01:54;;;;;;;1.85;1.50;;;;;;;;;;5052441;28;20052;-41
2022/06/20 12:04:34;;;;;;;2.33;1.65;;;;;;;;;;5052227;28;20036;-41
2022/06/20 12:07:07;;;;;;;2.25;1.60;;;;;;;;;;5052292;28;20108;-41
2022/06/20 12:09:46;;;;;;;1.85;1.65;;;;;;;;;;5050973;28;20451;-41
2022/06/20 12:12:12;;;;;;;2.00;1.70;;;;;;;;;;5052015;28;20041;-41
2022/06/20 12:14:56;;;;;;;1.90;1.40;;;;;;;;;;5052055;28;20052;-42
2022/06/20 12:17:22;;;;;;;1.92;1.10;;;;;;;;;;5051867;28;20036;-41
2022/06/20 12:25:30;;;;;;;1.70;1.60;;;;;;;;;;5051805;28;20025;-41
2022/06/20 12:27:55;;;;;;;1.75;1.65;;;;;;;;;;5052267;28;20040;-41
2022/06/20 12:30:21;;;;;;;1.65;1.40;;;;;;;;;;5052130;28;20025;-41
2022/06/20 12:32:49;;;;;;;1.38;1.27;;;;;;;;;;5051769;28;20108;-41
2022/06/20 12:35:20;;;;;;;2.45;1.70;;;;;;;;;;5051224;28;20028;-42
2022/06/20 12:37:51;;;;;;;2.28;1.65;;;;;;;;;;5051516;28;20035;-41
2022/06/20 12:40:37;;;;;;;4.32;2.00;;;;;;;;;;5050613;28;20390;-41
2022/06/20 12:43:23;;;;;;;5.13;2.35;;;;;;;;;;5051122;28;20454;-41
2022/06/20 12:46:01;;;;;;;2.67;1.85;;;;;;;;;;5051398;28;20402;-41
2022/06/20 12:48:35;;;;;;;1.60;1.50;;;;;;;;;;5051573;28;20479;-42
2022/06/20 12:51:00;;;;;;;3.83;1.80;;;;;;;;;;5051382;28;20399;-41
2022/06/20 12:53:41;;;;;;;4.20;1.73;;;;;;;;;;5051739;28;20025;-47
2022/06/20 12:56:14;;;;;;;2.55;1.45;;;;;;;;;;5051331;28;20024;-41
2022/06/20 12:58:48;;;;;;;1.30;1.20;;;;;;;;;;5051466;28;20399;-41
2022/06/20 13:01:17;;;;;;;1.50;1.40;;;;;;;;;;5051265;28;20040;-41
2022/06/20 13:03:54;;;;;;;3.28;1.55;;;;;;;;;;5051457;28;20021;-41
2022/06/20 13:06:38;;;;;;;4.25;1.70;;;;;;;;;;5051137;28;20067;-42
2022/06/20 13:09:11;;;;;;;3.55;1.70;;;;;;;;;;5051108;28;20029;-42
2022/06/20 13:11:42;;;;;;;2.60;1.50;;;;;;;;;;5051328;28;20519;-41
2022/06/20 13:14:26;;;;;;;3.33;1.85;;;;;;;;;;5051099;28;20029;-41
2022/06/20 13:17:07;;;;;;;2.15;1.85;;;;;;;;;;5051273;28;20025;-42
2022/06/20 13:19:45;;;;;;;2.05;1.83;;;;;;;;;;5051110;28;20048;-42
2022/06/20 13:22:16;;;;;;;1.95;1.50;;;;;;;;;;5051017;28;20021;-41
2022/06/20 13:24:45;;;;;;;1.98;1.88;;;;;;;;;;5051190;28;20550;-41
2022/06/20 13:27:15;;;;;;;1.88;1.73;;;;;;;;;;5051044;28;20514;-41
2022/06/20 13:29:50;;;;;;;2.03;1.83;;;;;;;;;;5051068;28;20036;-41
2022/06/20 13:32:20;;;;;;;3.95;2.28;;;;;;;;;;5051084;28;20029;-41
2022/06/20 13:34:58;;;;;;;2.13;1.92;;;;;;;;;;5049890;28;20029;-41
2022/06/20 13:37:43;;;;;;;4.38;2.22;;;;;;;;;;5049777;28;20028;-41
2022/06/20 13:40:27;;;;;;;4.13;2.28;;;;;;;;;;5050993;28;20110;-41
2022/06/20 13:42:59;;;;;;;4.40;2.00;;;;;;;;;;5050942;28;20045;-41
2022/06/20 13:45:27;;;;;;;2.90;2.03;;;;;;;;;;5049800;28;20458;-40
2022/06/20 13:47:55;;;;;;;2.95;2.15;;;;;;;;;;5052372;28;20017;-40
2022/06/20 13:50:35;;;;;;;1.88;1.70;;;;;;;;;;5055091;28;20053;-40
2022/06/20 13:53:10;;;;;;;1.67;1.58;;;;;;;;;;5054770;28;20025;-39
2022/06/20 13:56:05;;;;;;;2.33;1.58;;;;;;;;;;5054892;28;20453;-40
2022/06/20 13:58:31;;;;;;;9.93;5.00;;;;;;;;;;5053654;28;20044;-40
2022/06/20 14:01:11;;;;;;;3.50;1.75;;;;;;;;;;5053249;28;20395;-40
2022/06/20 14:03:47;;;;;;;4.03;2.00;;;;;;;;;;5054567;28;20496;-40
2022/06/20 14:06:18;;;;;;;1.60;1.42;;;;;;;;;;5054792;28;20111;-40
2022/06/20 14:08:51;;;;;;;2.70;1.63;;;;;;;;;;5054534;28;20174;-40
2022/06/20 14:11:26;;;;;;;3.00;1.90;;;;;;;;;;5054367;28;20108;-40
2022/06/20 14:13:52;;;;;;;3.20;1.70;;;;;;;;;;5054428;28;20025;-40
2022/06/20 14:16:23;;;;;;;1.60;1.25;;;;;;;;;;5054338;28;20044;-40
2022/06/20 14:18:54;;;;;;;2.20;1.40;;;;;;;;;;5054669;28;20171;-41
2022/06/20 14:21:20;;;;;;;2.10;1.60;;;;;;;;;;5054166;28;20300;-40
2022/06/20 14:23:48;;;;;;;2.67;1.58;;;;;;;;;;5054579;28;20029;-40
2022/06/20 14:26:32;;;;;;;2.03;1.30;;;;;;;;;;5054140;28;20031;-39
2022/06/20 14:29:01;;;;;;;1.95;1.75;;;;;;;;;;5054109;28;20041;-40
2022/06/20 14:31:29;;;;;;;5.18;1.35;;;;;;;;;;5054213;28;20079;-39
2022/06/20 14:34:03;;;;;;;1.77;1.45;;;;;;;;;;5054180;28;20033;-39
2022/06/20 14:36:32;;;;;;;2.83;1.77;;;;;;;;;;5054268;28;20036;-40
2022/06/20 14:39:01;;;;;;;1.73;1.63;;;;;;;;;;5052466;28;20414;-40
2022/06/20 14:41:39;;;;;;;2.35;1.65;;;;;;;;;;5053996;28;20045;-40
2022/06/20 14:44:18;;;;;;;1.33;1.23;;;;;;;;;;5052547;28;20151;-40
2022/06/20 14:46:56;;;;;;;3.13;1.60;;;;;;;;;;5053993;28;20036;-39
2022/06/20 14:49:25;;;;;;;2.38;1.70;;;;;;;;;;5053732;28;20067;-40
2022/06/20 14:51:53;;;;;;;2.88;1.50;;;;;;;;;;5053750;28;20474;-39
2022/06/20 14:54:45;;;;;;;4.28;1.15;;;;;;;;;;5053564;28;20028;-40
2022/06/20 14:57:19;;;;;;;2.10;1.52;;;;;;;;;;5053589;28;20032;-40
2022/06/20 14:59:58;;;;;;;1.70;1.60;;;;;;;;;;5053135;28;20087;-40
2022/06/20 15:02:29;;;;;;;1.52;1.42;;;;;;;;;;5053499;28;20067;-40
2022/06/20 15:05:13;;;;;;;7.10;1.95;;;;;;;;;;5053462;28;20036;-40
2022/06/20 15:07:42;;;;;;;3.22;1.80;;;;;;;;;;5053470;28;20095;-40
2022/06/20 15:10:26;;;;;;;3.33;1.42;;;;;;;;;;5053319;28;20017;-40
2022/06/20 15:12:56;;;;;;;6.85;1.67;;;;;;;;;;5053339;28;20033;-40
2022/06/20 15:15:34;;;;;;;2.63;1.60;;;;;;;;;;5052973;28;20049;-41